This is the latest recevied weather packets stored in our database for station/object EA3CTN-13. If no packets are shown the sender has not sent any weather packets the latest 10 day(s).
| Time | Temp. | Humidity | Pressure | Rain* | Wind** | Luminosity | Snow |
|---|---|---|---|---|---|---|---|
| 1777370364 | 23.33° C | 34% | 1015.5 hPa | - | - | - | - |
| 1777369885 | 23.33° C | 38% | 1015.5 hPa | - | - | - | - |
| 1777369406 | 23.33° C | 39% | 1015.6 hPa | - | - | - | - |
| 1777368925 | 23.33° C | 39% | 1015.5 hPa | - | - | - | - |
| 1777368445 | 22.78° C | 43% | 1015.4 hPa | - | - | - | - |
| 1777367964 | 22.78° C | 43% | 1015.4 hPa | - | - | - | - |
| 1777367485 | 22.78° C | 43% | 1015.4 hPa | - | - | - | - |
| 1777367004 | 22.78° C | 44% | 1015.5 hPa | - | - | - | - |
| 1777366525 | 22.78° C | 44% | 1015.5 hPa | - | - | - | - |
| 1777366045 | 22.78° C | 44% | 1015.3 hPa | - | - | - | - |
| 1777365565 | 22.78° C | 44% | 1015.3 hPa | - | - | - | - |
| 1777365084 | 22.22° C | 45% | 1015.2 hPa | - | - | - | - |
| 1777364605 | 22.78° C | 43% | 1015.2 hPa | - | - | - | - |
| 1777364124 | 22.78° C | 44% | 1015.2 hPa | - | - | - | - |
| 1777363644 | 22.22° C | 44% | 1015.1 hPa | - | - | - | - |
| 1777363164 | 22.22° C | 44% | 1015 hPa | - | - | - | - |
| 1777362684 | 22.22° C | 43% | 1015 hPa | - | - | - | - |
| 1777362205 | 22.22° C | 43% | 1015 hPa | - | - | - | - |
| 1777361724 | 22.22° C | 43% | 1014.9 hPa | - | - | - | - |
| 1777361244 | 22.22° C | 43% | 1014.9 hPa | - | - | - | - |
| 1777360765 | 22.22° C | 43% | 1015 hPa | - | - | - | - |
| 1777360284 | 22.22° C | 43% | 1015.1 hPa | - | - | - | - |
| 1777359807 | 22.22° C | 43% | 1014.9 hPa | - | - | - | - |
| 1777327644 | 22.78° C | 35% | 1017.3 hPa | - | - | - | - |
| 1777327164 | 22.78° C | 33% | 1017.3 hPa | - | - | - | - |
* Rain since midnight (hover to see other rain measurements)
** Current wind speed in m/s (hover to see current wind gust speed)